Time;durP1;ratioP1;P1;durP2;ratioP2;P2;SDS_P1;SDS_P2;PMS_P1;PMS_P2;Temp;Humidity;BMP_temperature;BMP_pressure;BME280_temperature;BME280_humidity;BME280_pressure;Samples;Min_cycle;Max_cycle;Signal;HPM_P1;HPM_P2
2021/01/04 00:00:40;;;;;;;41.50;21.13;;;1.60;99.90;;;-0.90;100.00;100214.44;4945876;28;100778;-70
2021/01/04 00:03:47;;;;;;;47.67;23.63;;;1.80;99.90;;;-0.91;100.00;100216.22;4946370;28;100263;-70
2021/01/04 00:06:53;;;;;;;45.40;25.17;;;1.70;99.90;;;-0.91;100.00;100215.34;4946181;28;100687;-70
2021/01/04 00:09:28;;;;;;;38.10;22.40;;;1.60;99.90;;;-0.90;100.00;100209.19;4921214;28;101042;-69
2021/01/04 00:12:02;;;;;;;42.33;23.63;;;1.50;99.90;;;-0.89;100.00;100210.88;4945100;28;101230;-70
2021/01/04 00:14:53;;;;;;;42.87;23.03;;;1.90;99.90;;;-0.87;100.00;100211.63;4945362;28;100163;-71
2021/01/04 00:18:02;;;;;;;41.43;24.40;;;1.60;99.90;;;-0.91;100.00;100225.88;4947344;28;100188;-69
2021/01/04 00:20:35;;;;;;;45.97;26.07;;;1.80;99.90;;;-0.93;100.00;100215.44;4883801;28;101077;-70
2021/01/04 00:23:26;;;;;;;42.50;23.67;;;1.60;99.90;;;-0.93;100.00;100212.81;4932906;28;100734;-70
2021/01/04 00:26:02;;;;;;;40.27;23.50;;;1.60;99.90;;;-0.92;100.00;100214.50;4945774;28;100472;-71
2021/01/04 00:28:34;;;;;;;37.57;24.17;;;1.50;99.90;;;-0.92;100.00;100216.28;4945799;28;100377;-71
2021/01/04 00:31:08;;;;;;;42.63;23.87;;;1.60;99.90;;;-0.92;100.00;100205.78;4945358;28;101230;-69
2021/01/04 00:33:40;;;;;;;37.20;23.60;;;1.70;99.90;;;-0.94;100.00;100213.75;4945143;28;100592;-70
2021/01/04 00:36:14;;;;;;;42.93;24.20;;;1.70;99.90;;;-0.96;100.00;100210.34;4945872;28;100551;-70
2021/01/04 00:39:35;;;;;;;40.23;21.93;;;1.70;99.90;;;-0.94;100.00;100210.28;4945573;28;100221;-71
2021/01/04 00:42:12;;;;;;;36.43;21.87;;;1.50;99.90;;;-0.95;100.00;100209.44;4945636;28;101321;-69
2021/01/04 00:44:56;;;;;;;36.60;21.33;;;1.50;99.90;;;-0.92;100.00;100209.25;4944674;28;100155;-69
2021/01/04 00:47:34;;;;;;;37.67;22.57;;;1.70;99.90;;;-0.94;100.00;100211.13;4946051;28;100141;-70
2021/01/04 00:50:11;;;;;;;37.37;23.57;;;1.70;99.90;;;-0.93;100.00;100214.59;4945635;28;100485;-69
2021/01/04 00:52:46;;;;;;;33.13;20.10;;;1.70;99.90;;;-0.94;100.00;100207.66;4944431;28;101455;-69
2021/01/04 00:55:35;;;;;;;31.27;20.33;;;1.50;99.90;;;-0.96;100.00;100214.75;4944959;28;100895;-69
2021/01/04 00:58:41;;;;;;;33.27;20.40;;;1.50;99.90;;;-0.96;100.00;100220.88;4945637;28;100066;-71
2021/01/04 01:01:14;;;;;;;33.10;21.77;;;1.60;99.90;;;-0.94;100.00;100221.63;4945363;28;100183;-69
2021/01/04 01:03:54;;;;;;;31.57;21.03;;;1.60;99.90;;;-0.93;100.00;100225.94;4944651;28;100566;-70
2021/01/04 01:06:29;;;;;;;29.87;20.70;;;1.50;99.90;;;-0.92;100.00;100234.69;4945067;28;100545;-69
2021/01/04 01:08:59;;;;;;;31.87;20.23;;;1.70;99.90;;;-0.92;100.00;100239.94;4944985;28;101087;-69
2021/01/04 01:12:10;;;;;;;33.53;20.47;;;1.50;99.90;;;-0.93;100.00;100236.47;4944888;28;100092;-70
2021/01/04 01:14:44;;;;;;;30.90;20.60;;;1.70;99.90;;;-0.94;100.00;100247.03;4945017;28;100839;-69
2021/01/04 01:17:59;;;;;;;28.47;18.93;;;1.50;99.90;;;-0.93;100.00;100235.59;4945043;28;101318;-70
2021/01/04 01:20:27;;;;;;;30.37;20.60;;;1.50;99.90;;;-0.92;100.00;100237.31;4921855;28;100431;-70
2021/01/04 01:22:56;;;;;;;32.13;19.63;;;1.80;99.90;;;-0.90;100.00;100240.69;4944935;28;100204;-69
2021/01/04 01:25:28;;;;;;;29.63;19.87;;;1.50;99.90;;;-0.90;100.00;100235.44;4943978;28;100820;-69
2021/01/04 01:28:45;;;;;;;31.23;20.40;;;1.60;99.90;;;-0.92;100.00;100240.78;4946439;28;101450;-69
2021/01/04 01:31:38;;;;;;;32.30;19.63;;;1.60;99.90;;;-0.87;100.00;100238.75;4955383;28;100397;-69
2021/01/04 01:34:32;;;;;;;31.43;19.77;;;1.50;99.90;;;-0.90;100.00;100238.91;4929263;28;100000;-69
2021/01/04 01:37:40;;;;;;;28.90;18.70;;;1.70;99.90;;;-0.90;100.00;100232.81;4925039;28;100788;-70
2021/01/04 01:40:32;;;;;;;29.97;18.47;;;1.60;99.90;;;-0.92;100.00;100234.69;4926788;28;100275;-71
2021/01/04 01:43:26;;;;;;;31.10;18.53;;;2.60;99.90;;;-0.93;100.00;100238.22;4945233;28;99925;-70
2021/01/04 01:45:59;;;;;;;29.00;19.67;;;1.60;99.90;;;-0.90;100.00;100240.69;4944547;28;100300;-69
2021/01/04 01:48:46;;;;;;;27.57;17.53;;;2.90;99.90;;;-0.92;100.00;100234.69;4943638;28;101356;-71
2021/01/04 01:51:43;;;;;;;32.07;19.23;;;1.70;99.90;;;-0.89;100.00;100239.75;4944597;28;100900;-68
2021/01/04 01:54:33;;;;;;;33.90;19.43;;;1.50;99.90;;;-0.92;100.00;100242.56;4945066;28;100193;-68
2021/01/04 01:57:34;;;;;;;31.57;18.90;;;1.70;99.90;;;-0.92;100.00;100238.16;4925933;28;100373;-69
2021/01/04 02:00:18;;;;;;;30.70;18.83;;;1.70;99.90;;;-0.96;100.00;100239.25;4943715;28;100686;-69
2021/01/04 02:02:57;;;;;;;33.27;19.20;;;1.60;99.90;;;-0.94;100.00;100236.53;4944219;28;100872;-69
2021/01/04 02:05:38;;;;;;;31.07;18.53;;;1.80;99.90;;;-0.93;100.00;100239.09;4944696;28;100113;-70
2021/01/04 02:08:10;;;;;;;33.33;19.93;;;1.60;99.90;;;-0.93;100.00;100239.09;4945084;28;100039;-69
2021/01/04 02:10:42;;;;;;;31.33;18.90;;;1.60;99.90;;;-0.94;100.00;100242.63;4943557;28;100168;-68
2021/01/04 02:13:16;;;;;;;32.07;19.33;;;1.70;99.90;;;-0.95;100.00;100238.31;4944009;28;100393;-68
2021/01/04 02:15:51;;;;;;;31.67;18.83;;;1.60;99.90;;;-0.87;100.00;100246.63;4944158;28;100307;-69
2021/01/04 02:18:46;;;;;;;35.00;18.60;;;1.60;99.90;;;-0.87;100.00;100246.63;4944550;28;100409;-69
2021/01/04 02:22:19;;;;;;;29.03;17.93;;;1.60;99.90;;;-0.90;100.00;100244.16;4943936;28;100858;-70
2021/01/04 02:24:48;;;;;;;32.10;19.00;;;1.70;99.90;;;-0.89;100.00;100248.50;4916025;28;100024;-69
2021/01/04 02:27:22;;;;;;;30.90;18.27;;;1.80;99.90;;;-0.86;100.00;100248.28;4944947;28;100205;-70
2021/01/04 02:29:52;;;;;;;33.07;19.73;;;1.70;99.90;;;-0.88;100.00;100251.97;4930818;28;100154;-70
2021/01/04 02:32:20;;;;;;;30.77;17.33;;;2.30;99.90;;;-0.87;100.00;100245.78;4924571;28;100659;-70
2021/01/04 02:34:51;;;;;;;33.03;19.87;;;1.70;99.90;;;-0.90;100.00;100245.94;4925131;28;100498;-70
2021/01/04 02:37:22;;;;;;;29.90;18.67;;;1.70;99.90;;;-0.89;100.00;100247.66;4924071;28;100250;-70
2021/01/04 02:39:53;;;;;;;35.57;19.97;;;1.70;99.90;;;-0.87;100.00;100244.00;4927735;28;100147;-70
2021/01/04 02:42:23;;;;;;;29.10;18.93;;;1.70;99.90;;;-0.92;100.00;100245.19;4944530;28;102234;-69
2021/01/04 02:44:50;;;;;;;28.67;18.57;;;1.80;99.90;;;-0.90;100.00;100248.56;4946653;28;100778;-69
2021/01/04 02:47:43;;;;;;;30.57;18.97;;;1.80;99.90;;;-0.86;100.00;100248.28;4947506;28;100249;-69
2021/01/04 02:50:37;;;;;;;31.67;19.40;;;1.30;99.90;;;-0.86;100.00;100252.69;4947460;28;100274;-69
2021/01/04 02:53:20;;;;;;;32.13;19.67;;;1.70;99.90;;;-0.90;100.00;100254.69;4947698;28;100580;-69
2021/01/04 02:56:04;;;;;;;31.73;18.87;;;1.80;99.90;;;-0.88;100.00;100257.22;4927962;28;102398;-69
2021/01/04 02:58:51;;;;;;;30.53;18.47;;;1.70;99.90;;;-0.83;100.00;100245.50;4947895;28;100186;-69
2021/01/04 03:01:23;;;;;;;28.93;17.47;;;1.80;99.90;;;-0.86;100.00;100242.19;4947580;28;100091;-69
2021/01/04 03:03:50;;;;;;;29.13;17.43;;;1.70;99.90;;;-0.83;100.00;100245.50;4946815;28;101278;-69
2021/01/04 03:06:26;;;;;;;25.93;17.87;;;1.60;99.90;;;-0.83;100.00;100245.50;4946740;28;100595;-69
2021/01/04 03:08:53;;;;;;;29.50;18.80;;;1.40;99.90;;;-0.83;100.00;100236.78;4946791;28;100210;-69
2021/01/04 03:11:23;;;;;;;30.97;17.33;;;1.90;99.90;;;-0.82;100.00;100241.09;4946590;28;100358;-69
2021/01/04 03:13:59;;;;;;;27.67;17.90;;;1.70;99.90;;;-0.88;100.00;100239.69;4947024;28;101117;-69
2021/01/04 03:16:38;;;;;;;29.47;17.60;;;2.00;99.90;;;-0.90;100.00;100238.91;4946930;28;100321;-70
2021/01/04 03:19:11;;;;;;;26.43;17.70;;;1.80;99.90;;;-0.91;100.00;100242.47;4947058;28;100154;-69
2021/01/04 03:21:39;;;;;;;30.20;17.53;;;1.80;99.90;;;-0.88;100.00;100244.94;4946553;28;100644;-67
2021/01/04 03:24:11;;;;;;;27.53;18.20;;;1.80;99.90;;;-0.87;100.00;100241.38;4946528;28;101907;-69
2021/01/04 03:26:45;;;;;;;30.53;19.30;;;1.70;99.90;;;-0.89;100.00;100248.50;4947209;28;100381;-69
2021/01/04 03:29:11;;;;;;;27.20;18.37;;;1.90;99.90;;;-0.90;100.00;100251.19;4947404;28;100275;-69
2021/01/04 03:31:38;;;;;;;29.50;18.30;;;2.40;99.90;;;-0.87;100.00;100244.00;4946973;28;100185;-70
2021/01/04 03:34:05;;;;;;;26.83;17.33;;;1.70;99.90;;;-0.88;100.00;100238.84;4946619;28;101483;-70
2021/01/04 03:36:31;;;;;;;29.23;18.67;;;1.80;99.90;;;-0.89;100.00;100239.75;4945861;28;100690;-71
2021/01/04 03:38:58;;;;;;;28.00;17.37;;;1.80;99.90;;;-0.89;100.00;100242.38;4947142;28;100048;-70
2021/01/04 03:41:25;;;;;;;29.43;18.13;;;1.80;99.90;;;-0.89;100.00;100235.34;4946986;28;100132;-70
2021/01/04 03:43:53;;;;;;;28.60;18.00;;;1.70;99.90;;;-0.88;100.00;100238.84;4946396;28;101138;-71
2021/01/04 03:46:20;;;;;;;27.97;17.07;;;1.70;99.90;;;-0.90;100.00;100241.53;4945953;28;100823;-71
2021/01/04 03:48:47;;;;;;;29.10;18.00;;;3.00;99.90;;;-0.89;100.00;100243.25;4946044;28;100901;-71
2021/01/04 03:51:13;;;;;;;29.97;19.03;;;1.70;99.90;;;-0.89;100.00;100237.13;4946549;28;100236;-71
2021/01/04 03:53:41;;;;;;;27.97;17.27;;;1.90;99.90;;;-0.92;100.00;100234.69;4945684;28;101093;-70
2021/01/04 03:56:14;;;;;;;25.27;17.33;;;2.30;99.90;;;-0.90;100.00;100232.81;4946178;28;100814;-70
2021/01/04 03:58:40;;;;;;;28.17;16.60;;;1.70;99.90;;;-0.85;100.00;100233.38;4946216;28;100250;-72
2021/01/04 04:01:08;;;;;;;28.33;18.27;;;1.70;99.90;;;-0.86;100.00;100245.66;4946093;28;100089;-72
2021/01/04 04:03:35;;;;;;;29.63;17.90;;;1.60;99.90;;;-0.88;100.00;100247.56;4946067;28;101526;-72
2021/01/04 04:06:02;;;;;;;31.23;18.40;;;1.80;99.90;;;-0.88;100.00;100244.94;4946024;28;100535;-70
2021/01/04 04:08:28;;;;;;;29.33;18.17;;;1.70;99.90;;;-0.90;100.00;100238.91;4946412;28;100329;-71
2021/01/04 04:10:55;;;;;;;28.93;17.47;;;1.80;99.90;;;-0.89;100.00;100252.91;4945162;28;100252;-70
2021/01/04 04:13:22;;;;;;;28.70;17.70;;;2.60;99.90;;;-0.89;100.00;100247.66;4945876;28;101077;-70
2021/01/04 04:15:49;;;;;;;26.97;17.47;;;1.70;99.90;;;-0.90;100.00;100245.94;4946057;28;101597;-70
2021/01/04 04:18:16;;;;;;;28.77;18.53;;;1.60;99.90;;;-0.90;100.00;100248.56;4946123;28;100356;-71
2021/01/04 04:20:43;;;;;;;28.37;17.27;;;1.70;99.90;;;-0.92;100.00;100258.31;4945589;28;100155;-70
2021/01/04 04:23:10;;;;;;;25.03;16.50;;;1.70;99.90;;;-0.90;100.00;100253.81;4945558;28;100725;-70
2021/01/04 04:25:36;;;;;;;30.37;18.40;;;2.00;99.90;;;-0.92;100.00;100253.06;4944813;28;100144;-70
2021/01/04 04:28:03;;;;;;;26.27;16.97;;;1.60;99.90;;;-0.93;100.00;100254.84;4945973;28;99964;-72
2021/01/04 04:30:30;;;;;;;28.37;17.23;;;1.80;99.90;;;-0.92;100.00;100261.78;4927470;28;100475;-71
2021/01/04 04:32:59;;;;;;;28.83;17.70;;;1.70;99.90;;;-0.89;100.00;100259.00;4927131;28;101882;-71
2021/01/04 04:35:28;;;;;;;27.83;17.87;;;1.80;99.90;;;-0.94;100.00;100260.19;4945420;28;100447;-72
2021/01/04 04:37:56;;;;;;;30.90;17.83;;;1.60;99.90;;;-0.94;100.00;100262.81;4945870;28;100525;-71
2021/01/04 04:40:27;;;;;;;26.87;18.83;;;1.70;99.90;;;-0.90;100.00;100259.09;4946253;28;100128;-72
2021/01/04 04:42:56;;;;;;;31.03;18.37;;;1.70;99.90;;;-0.92;100.00;100261.78;4945744;28;101007;-71
2021/01/04 04:45:24;;;;;;;29.83;18.43;;;1.60;99.90;;;-0.92;100.00;100261.78;4945269;28;100040;-71
2021/01/04 04:48:24;;;;;;;36.33;19.50;;;1.70;99.90;;;-0.92;100.00;100260.94;4926424;28;100171;-71
2021/01/04 04:51:03;;;;;;;34.13;17.87;;;1.60;99.90;;;-0.92;100.00;100260.94;4945157;28;100285;-71
2021/01/04 04:54:23;;;;;;;33.53;19.43;;;2.20;99.90;;;-0.93;100.00;100267.13;4944911;28;100839;-72
2021/01/04 04:57:37;;;;;;;33.57;19.43;;;1.60;99.90;;;-0.91;100.00;100268.75;4929695;28;100608;-71
2021/01/04 05:00:21;;;;;;;34.30;22.37;;;1.60;99.90;;;-0.90;100.00;100272.22;4944947;28;100610;-70
2021/01/04 05:03:03;;;;;;;43.90;23.53;;;1.70;99.90;;;-0.88;100.00;100263.31;4926649;28;100287;-70
2021/01/04 05:05:36;;;;;;;41.93;21.77;;;1.50;99.90;;;-0.92;100.00;100266.19;4944362;28;102095;-70
2021/01/04 05:08:15;;;;;;;37.67;20.07;;;1.70;99.90;;;-0.91;100.00;100267.88;4945893;28;100643;-71
2021/01/04 05:10:44;;;;;;;43.57;22.90;;;1.60;99.90;;;-0.91;100.00;100276.63;4945314;28;100244;-70
2021/01/04 05:13:23;;;;;;;43.53;22.77;;;2.20;99.90;;;-0.90;100.00;100274.84;4945088;28;100222;-70
2021/01/04 05:15:58;;;;;;;37.73;22.07;;;1.70;99.90;;;-0.88;100.00;100278.25;4944647;28;100093;-72
2021/01/04 05:18:50;;;;;;;47.97;22.03;;;1.60;99.90;;;-0.89;100.00;100268.66;4944773;28;101136;-72
2021/01/04 05:22:10;;;;;;;49.93;22.77;;;1.70;99.90;;;-0.90;100.00;100274.84;4945571;28;100132;-70
2021/01/04 05:25:20;;;;;;;39.43;22.37;;;1.70;99.90;;;-0.92;100.00;100267.03;4944956;28;99960;-70
2021/01/04 05:28:29;;;;;;;45.50;21.30;;;1.60;99.90;;;-0.86;100.00;100263.22;4906976;28;100267;-71
2021/01/04 05:31:16;;;;;;;42.57;20.43;;;1.70;99.90;;;-0.85;100.00;100262.28;4927024;28;99989;-72
2021/01/04 05:34:08;;;;;;;44.87;22.23;;;1.70;99.90;;;-0.86;100.00;100268.47;4945699;28;99947;-72
2021/01/04 05:37:08;;;;;;;41.47;21.73;;;1.70;99.90;;;-0.83;100.00;100263.88;4944382;28;99839;-71
2021/01/04 05:40:03;;;;;;;42.13;21.60;;;1.90;99.90;;;-0.86;100.00;100271.09;4939376;28;103393;-71
2021/01/04 05:43:02;;;;;;;53.37;22.57;;;1.70;99.90;;;-0.82;100.00;100270.00;4942102;28;100886;-72
2021/01/04 05:45:33;;;;;;;45.27;21.60;;;1.80;99.90;;;-0.83;100.00;100263.03;4937016;28;100477;-72
2021/01/04 05:48:12;;;;;;;44.00;22.87;;;3.20;99.90;;;-0.87;100.00;100261.53;4944258;28;100070;-71
2021/01/04 05:50:49;;;;;;;43.93;20.90;;;1.80;99.90;;;-0.86;100.00;100260.59;4950676;28;100929;-71
2021/01/04 05:53:16;;;;;;;40.07;20.67;;;1.80;99.90;;;-0.90;100.00;100265.19;4947504;28;100556;-71
2021/01/04 05:55:43;;;;;;;42.00;21.40;;;1.90;99.90;;;-0.90;100.00;100270.44;4945205;28;100208;-69
2021/01/04 05:58:17;;;;;;;46.20;21.30;;;2.10;99.90;;;-0.92;100.00;100261.78;4943176;28;100221;-70
2021/01/04 06:00:44;;;;;;;42.23;21.13;;;1.90;99.90;;;-0.91;100.00;100265.25;4943341;28;100863;-68
2021/01/04 06:03:14;;;;;;;42.30;21.67;;;1.60;99.90;;;-0.89;100.00;100272.13;4945675;28;101244;-69
2021/01/04 06:05:41;;;;;;;41.97;20.43;;;1.80;99.90;;;-0.90;100.00;100269.59;4941987;28;100278;-69
2021/01/04 06:08:22;;;;;;;49.57;22.10;;;1.70;99.90;;;-0.87;100.00;100266.81;4942325;28;100215;-69
2021/01/04 06:10:49;;;;;;;42.60;19.63;;;2.80;99.90;;;-0.88;100.00;100262.47;4940336;28;101960;-69
2021/01/04 06:13:20;;;;;;;47.30;21.17;;;1.70;99.90;;;-0.90;100.00;100267.81;4942745;28;101163;-69
2021/01/04 06:15:47;;;;;;;44.60;21.57;;;2.70;99.90;;;-0.92;100.00;100269.66;4945798;28;101645;-69
2021/01/04 06:18:26;;;;;;;43.03;21.60;;;2.30;99.90;;;-0.88;100.00;100273.84;4946020;28;100209;-69
2021/01/04 06:21:32;;;;;;;49.90;23.30;;;1.70;99.90;;;-0.90;100.00;100273.06;4944908;28;100668;-69
2021/01/04 06:24:01;;;;;;;42.40;21.57;;;1.90;99.90;;;-0.87;100.00;100266.81;4883275;28;102469;-69
2021/01/04 06:26:29;;;;;;;46.37;22.10;;;1.80;99.90;;;-0.92;100.00;100266.19;4935875;28;100398;-69
2021/01/04 06:29:00;;;;;;;42.93;22.30;;;1.80;99.90;;;-0.88;100.00;100265.94;4946649;28;100247;-69
2021/01/04 06:31:39;;;;;;;39.47;22.80;;;1.80;99.90;;;-0.87;100.00;100272.06;4944505;28;101130;-69
2021/01/04 06:34:18;;;;;;;44.17;21.87;;;1.90;99.90;;;-0.93;100.00;100270.59;4945145;28;100643;-70
2021/01/04 06:36:49;;;;;;;45.43;20.63;;;1.90;99.90;;;-0.86;100.00;100276.34;4944019;28;100084;-69
2021/01/04 06:39:25;;;;;;;43.80;21.27;;;1.60;99.90;;;-0.90;100.00;100283.56;4943230;28;100018;-70
2021/01/04 06:41:53;;;;;;;43.40;20.70;;;1.90;99.90;;;-0.93;100.00;100282.88;4943783;28;100069;-70
2021/01/04 06:44:25;;;;;;;48.40;20.77;;;1.70;99.90;;;-0.89;100.00;100287.03;4954397;28;100348;-70
2021/01/04 06:47:27;;;;;;;50.40;21.03;;;1.70;99.90;;;-0.91;100.00;100294.16;4961020;28;100732;-69
2021/01/04 06:50:05;;;;;;;40.93;21.17;;;1.80;99.90;;;-0.94;100.00;100295.16;4948926;28;100811;-70
2021/01/04 06:53:14;;;;;;;46.83;21.97;;;1.70;99.90;;;-0.91;100.00;100286.28;4964204;28;100788;-69
2021/01/04 06:56:12;;;;;;;43.73;21.93;;;1.70;99.90;;;-0.88;100.00;100294.00;4964526;28;101546;-68
2021/01/04 06:59:44;;;;;;;50.60;22.90;;;1.70;99.90;;;-0.84;100.00;100293.72;4956950;28;100354;-68
2021/01/04 07:03:14;;;;;;;47.60;23.03;;;1.70;99.90;;;-0.88;100.00;100286.97;4908986;28;100245;-69
2021/01/04 07:06:15;;;;;;;52.53;21.37;;;1.70;99.90;;;-0.93;100.00;100304.75;4944103;28;100167;-70
2021/01/04 07:09:28;;;;;;;44.90;20.67;;;1.80;99.90;;;-0.91;100.00;100307.28;4945050;28;100341;-70
2021/01/04 07:11:59;;;;;;;43.03;20.70;;;1.70;99.90;;;-0.93;100.00;100309.16;4943442;28;100625;-69
2021/01/04 07:15:10;;;;;;;49.20;20.10;;;1.70;99.90;;;-0.92;100.00;100308.22;4944464;28;100367;-69
2021/01/04 07:18:28;;;;;;;43.27;20.17;;;1.90;99.90;;;-0.95;100.00;100314.47;4944302;28;101587;-69
2021/01/04 07:21:11;;;;;;;46.87;20.40;;;1.80;99.90;;;-0.92;100.00;100314.31;4907935;28;100382;-68
2021/01/04 07:24:15;;;;;;;42.47;19.40;;;1.80;99.90;;;-0.90;100.00;100322.13;4944206;28;100095;-69
2021/01/04 07:26:54;;;;;;;50.17;19.13;;;1.80;99.90;;;-0.87;100.00;100325.44;4944517;28;100098;-69
2021/01/04 07:29:54;;;;;;;50.77;21.50;;;1.70;99.90;;;-0.94;100.00;100323.22;4946162;28;100949;-69
2021/01/04 07:32:25;;;;;;;48.07;20.67;;;1.80;99.90;;;-0.84;100.00;100321.78;4946313;28;100129;-69
2021/01/04 07:34:59;;;;;;;52.47;21.33;;;1.70;99.90;;;-0.87;100.00;100329.84;4946859;28;99884;-68
2021/01/04 07:37:44;;;;;;;57.13;21.93;;;1.60;99.90;;;-0.91;100.00;100333.56;4947739;28;100189;-68
2021/01/04 07:40:35;;;;;;;70.67;23.33;;;1.80;99.90;;;-0.88;100.00;100336.03;4947283;28;101291;-69
2021/01/04 07:43:40;;;;;;;57.03;22.30;;;1.70;99.90;;;-0.88;100.00;100330.78;4945399;28;100190;-68
2021/01/04 07:46:52;;;;;;;59.33;21.97;;;1.80;99.90;;;-0.88;100.00;100333.41;4947565;28;100235;-69
2021/01/04 07:50:17;;;;;;;53.60;20.53;;;1.80;99.90;;;-0.88;100.00;100334.25;4930110;28;100236;-69
2021/01/04 07:53:46;;;;;;;55.50;20.83;;;1.90;99.90;;;-0.92;100.00;100340.59;4901338;28;103335;-68
2021/01/04 07:57:00;;;;;;;50.37;19.90;;;1.80;99.90;;;-0.84;100.00;100350.66;4888351;28;99915;-68
2021/01/04 07:59:59;;;;;;;58.67;21.87;;;2.90;99.90;;;-0.88;100.00;100350.00;4904067;28;99784;-69
2021/01/04 08:03:49;;;;;;;55.27;20.70;;;1.80;99.90;;;-0.81;100.00;100345.25;4926990;28;99978;-69
2021/01/04 08:07:11;;;;;;;53.27;23.57;;;1.90;99.90;;;-0.88;100.00;100350.00;4876917;28;100178;-68
2021/01/04 08:10:13;;;;;;;50.37;21.77;;;1.80;99.90;;;-0.91;100.00;100355.41;4941105;28;100970;-68
2021/01/04 08:13:19;;;;;;;51.17;20.57;;;2.00;99.90;;;-0.76;100.00;100356.38;4943468;28;100110;-68
2021/01/04 08:15:49;;;;;;;82.63;24.93;;;1.80;99.90;;;-0.82;100.00;100368.03;4944593;28;99743;-69
2021/01/04 08:18:19;;;;;;;77.10;23.83;;;1.90;99.90;;;-0.89;100.00;100363.22;4944135;28;100509;-68
2021/01/04 08:21:00;;;;;;;69.30;24.30;;;2.00;99.90;;;-0.88;100.00;100364.91;4943454;28;100505;-68
2021/01/04 08:23:51;;;;;;;70.10;24.43;;;1.80;99.90;;;-0.86;100.00;100366.50;4925302;28;99773;-68
2021/01/04 08:26:36;;;;;;;70.63;23.93;;;1.90;99.90;;;-0.85;100.00;100357.69;4925465;28;100504;-69
2021/01/04 08:29:08;;;;;;;53.53;22.43;;;1.90;99.90;;;-0.82;100.00;100356.69;4925077;28;101931;-68
2021/01/04 08:31:47;;;;;;;69.70;23.30;;;2.10;99.90;;;-0.82;100.00;100360.16;4925266;28;101126;-68
2021/01/04 08:34:19;;;;;;;59.77;22.13;;;1.90;99.90;;;-0.86;100.00;100363.88;4924102;28;100390;-68
2021/01/04 08:36:55;;;;;;;66.57;23.47;;;3.00;99.90;;;-0.84;100.00;100363.78;4920952;28;100303;-70
2021/01/04 08:39:35;;;;;;;56.20;22.83;;;1.90;99.90;;;-0.77;100.00;100357.28;4905557;28;102375;-69
2021/01/04 08:42:27;;;;;;;74.10;25.67;;;2.00;99.90;;;-0.81;100.00;100371.53;4924259;28;100546;-70
2021/01/04 08:44:59;;;;;;;62.37;23.87;;;2.00;99.90;;;-0.77;100.00;100375.69;4905015;28;100209;-69
2021/01/04 08:47:34;;;;;;;74.93;23.80;;;1.80;99.90;;;-0.80;100.00;100370.59;4924247;28;100017;-68
2021/01/04 08:50:13;;;;;;;60.77;23.90;;;2.00;99.90;;;-0.75;100.00;100363.31;4934747;28;100533;-68
2021/01/04 08:52:46;;;;;;;54.80;23.50;;;1.90;99.90;;;-0.64;100.00;100368.81;4943387;28;101306;-69
2021/01/04 08:55:28;;;;;;;63.70;22.83;;;2.00;99.90;;;-0.75;100.00;100371.19;4943338;28;100096;-69
2021/01/04 08:58:15;;;;;;;71.33;24.90;;;2.00;99.90;;;-0.75;100.00;100365.94;4943134;28;100286;-69
2021/01/04 09:00:41;;;;;;;90.40;25.03;;;2.00;99.90;;;-0.78;100.00;100374.84;4939939;28;100295;-68
2021/01/04 09:03:20;;;;;;;71.17;24.13;;;2.10;99.90;;;-0.78;100.00;100373.97;4942414;28;101127;-69
2021/01/04 09:05:46;;;;;;;62.60;22.17;;;2.00;99.90;;;-0.68;100.00;100371.69;4942681;28;100282;-68
2021/01/04 09:08:16;;;;;;;75.97;25.13;;;2.00;99.90;;;-0.77;100.00;100375.69;4943337;28;100295;-69
2021/01/04 09:10:47;;;;;;;61.63;23.80;;;2.10;99.90;;;-0.76;100.00;100383.50;4942402;28;100981;-69
2021/01/04 09:13:31;;;;;;;93.07;25.40;;;2.20;99.90;;;-0.65;100.00;100377.63;4942112;28;101038;-67
2021/01/04 09:16:12;;;;;;;61.67;24.77;;;2.20;99.90;;;-0.65;100.00;100376.78;4934895;28;100369;-69
2021/01/04 09:18:45;;;;;;;69.67;24.13;;;2.20;99.90;;;-0.52;100.00;100373.41;4943227;28;100066;-69
2021/01/04 09:21:39;;;;;;;70.43;24.57;;;2.10;99.90;;;-0.64;100.00;100381.13;4943411;28;101240;-68
2021/01/04 09:24:16;;;;;;;86.73;25.57;;;2.30;99.90;;;-0.61;100.00;100378.28;4895220;28;100992;-69
2021/01/04 09:26:45;;;;;;;87.10;26.50;;;2.20;99.90;;;-0.66;100.00;100382.97;4942665;28;100298;-69
2021/01/04 09:29:25;;;;;;;72.60;26.00;;;2.10;99.90;;;-0.54;100.00;100377.88;4942650;28;100258;-69
2021/01/04 09:31:55;;;;;;;69.40;25.57;;;2.10;99.90;;;-0.50;100.00;100376.78;4942144;28;101067;-68
2021/01/04 09:34:22;;;;;;;75.70;26.90;;;2.30;99.90;;;-0.44;100.00;100373.78;4942660;28;101428;-68
2021/01/04 09:36:50;;;;;;;82.13;28.13;;;2.30;99.90;;;-0.34;100.00;100378.53;4942304;28;100832;-70
2021/01/04 09:39:27;;;;;;;75.70;26.50;;;2.20;99.90;;;-0.39;100.00;100378.81;4942089;28;100080;-69
2021/01/04 09:41:59;;;;;;;73.13;25.90;;;2.20;99.90;;;-143.91;100.00;62816.50;4942502;28;100854;-70
2021/01/04 09:44:25;;;;;;;79.77;26.03;;;2.30;99.90;;;-143.91;100.00;62816.50;4942837;28;100966;-69
2021/01/04 09:46:56;;;;;;;85.23;25.60;;;2.40;99.90;;;-143.91;100.00;62816.50;4941250;28;101912;-68
2021/01/04 09:49:29;;;;;;;76.63;25.77;;;2.30;99.90;;;-143.91;100.00;62816.50;4942837;28;100041;-69
2021/01/04 09:52:04;;;;;;;88.20;26.40;;;2.20;99.90;;;-143.91;100.00;62816.50;4941323;28;101542;-67
2021/01/04 09:54:39;;;;;;;66.53;24.03;;;2.10;99.90;;;-143.91;100.00;62816.50;4943466;28;100562;-68
2021/01/04 09:57:08;;;;;;;70.37;24.63;;;2.20;99.90;;;-143.91;100.00;62816.50;4942739;28;100307;-69
2021/01/04 09:59:41;;;;;;;89.50;25.70;;;2.00;99.90;;;-143.91;100.00;62816.50;4945580;28;100424;-69
2021/01/04 10:02:20;;;;;;;70.93;25.87;;;2.30;99.90;;;-143.91;100.00;62816.50;4945378;28;101095;-68
2021/01/04 10:04:47;;;;;;;66.47;26.47;;;2.20;99.90;;;-143.91;100.00;62816.50;4941977;28;100882;-71
2021/01/04 10:07:20;;;;;;;70.50;26.07;;;3.10;99.90;;;-143.91;100.00;62816.50;4923290;28;100111;-69
2021/01/04 10:09:51;;;;;;;98.70;27.40;;;2.10;99.90;;;-143.91;100.00;62816.50;4923468;28;100100;-69
2021/01/04 10:12:23;;;;;;;76.90;26.13;;;2.20;99.90;;;-143.91;100.00;62816.50;4926893;28;100110;-70
2021/01/04 10:14:53;;;;;;;78.77;27.03;;;2.30;99.90;;;-143.91;100.00;62816.50;4944987;28;101579;-68
2021/01/04 10:17:26;;;;;;;73.73;26.73;;;2.40;99.90;;;-143.91;100.00;62816.50;4944846;28;100656;-68
2021/01/04 10:19:58;;;;;;;79.53;25.80;;;2.20;99.90;;;-143.91;100.00;62816.50;4943271;28;100543;-69
2021/01/04 10:22:30;;;;;;;71.33;25.10;;;2.30;99.90;;;-143.91;100.00;62816.50;4943195;28;100565;-69
2021/01/04 10:25:01;;;;;;;72.93;26.20;;;2.30;99.90;;;-143.91;100.00;62816.50;4943078;28;100437;-67
2021/01/04 10:27:30;;;;;;;80.33;27.70;;;2.20;99.90;;;-143.91;100.00;62816.50;4943570;28;100270;-68
2021/01/04 10:29:58;;;;;;;82.57;26.67;;;2.30;99.90;;;-143.91;100.00;62816.50;4942147;28;100297;-69
2021/01/04 10:32:29;;;;;;;102.70;28.30;;;1.80;99.90;;;-143.91;100.00;62816.50;4941897;28;100703;-68
2021/01/04 10:34:57;;;;;;;93.60;30.30;;;2.20;99.90;;;-143.91;100.00;62816.50;4941098;28;100177;-69
2021/01/04 10:37:41;;;;;;;93.67;28.20;;;2.30;99.90;;;-143.91;100.00;62816.50;4952661;28;100076;-69
2021/01/04 10:40:12;;;;;;;81.73;29.23;;;2.40;99.90;;;-143.91;100.00;62816.50;4961931;28;100224;-69
2021/01/04 10:42:42;;;;;;;80.73;27.37;;;2.20;99.90;;;-143.91;100.00;62816.50;4961101;28;101391;-68
2021/01/04 10:45:13;;;;;;;78.20;28.17;;;2.30;99.90;;;-143.91;100.00;62816.50;4948916;28;101281;-68
2021/01/04 10:47:48;;;;;;;80.03;27.07;;;2.20;99.90;;;-143.91;100.00;62816.50;4922405;28;100352;-68